Search for airport 
image banner adimage banner adimage banner ad
image banner ad

PA40 - Benton

Located in Benton, United States

ICAO - PA40, IATA -

Data provided by Airmate  

General information

Coordinates: N41°12'0" W76°23'14"
Elevation is 780 feet MSL.
Magnetic variation is -11° East
View others Airports in Pennsylvania

Operational data

Special qualification required
Current time UTC:
Current local time:
Weather at : KHZL - Hazleton Rgnl ( 41 km )
METAR: KHZL 091715Z AUTO 21007KT 10SM -RA SCT029 BKN036 OVC050 08/01 A3003 RMK AO2
View NOTAMs / SUP AIP / TFR affecting this airport [VIEW]
Communications frequencies: [VIEW]

Runways:

RWY identifierQFULength (ft)Width (ft)SurfaceLDA (ft)
032200150GRASS
212200150GRASS

Airport contact information

Address: Benton United States

Satellite view of PA40